Time;durP1;ratioP1;P1;durP2;ratioP2;P2;SDS_P1;SDS_P2;PMS_P1;PMS_P2;Temp;Humidity;BMP_temperature;BMP_pressure;BME280_temperature;BME280_humidity;BME280_pressure;Samples;Min_cycle;Max_cycle;Signal;HPM_P1;HPM_P2
2023/05/23 00:00:59;;;;;;;9.82;5.80;;;;;;;18.75;81.70;100079.84;5110531;28;20058;-69
2023/05/23 00:03:25;;;;;;;7.22;5.70;;;;;;;18.68;81.86;100059.06;5106975;28;20053;-69
2023/05/23 00:05:50;;;;;;;13.48;5.95;;;;;;;18.68;81.77;100076.22;5109843;28;20107;-69
2023/05/23 00:08:16;;;;;;;7.05;5.40;;;;;;;18.70;81.54;100079.56;5103908;28;20466;-69
2023/05/23 00:10:43;;;;;;;7.97;5.38;;;;;;;18.60;81.57;100062.75;5108495;28;20024;-69
2023/05/23 00:13:08;;;;;;;6.40;5.10;;;;;;;18.64;81.89;100074.91;5109513;28;20738;-69
2023/05/23 00:15:37;;;;;;;6.78;5.57;;;;;;;18.68;81.66;100081.66;5107674;28;20039;-69
2023/05/23 00:18:03;;;;;;;6.60;5.97;;;;;;;18.63;81.77;100073.22;5109830;28;20046;-69
2023/05/23 00:20:29;;;;;;;7.18;5.47;;;;;;;18.55;81.76;100058.94;5113158;28;20027;-69
2023/05/23 00:22:57;;;;;;;9.25;5.63;;;;;;;18.52;82.06;100070.16;5112882;28;20042;-69
2023/05/23 00:25:23;;;;;;;6.35;5.68;;;;;;;18.56;82.18;100077.75;5112742;28;20355;-69
2023/05/23 00:27:50;;;;;;;7.25;6.05;;;;;;;18.54;82.30;100076.28;5111685;28;20019;-69
2023/05/23 00:30:15;;;;;;;9.52;5.82;;;;;;;18.44;82.52;100064.88;5112609;28;20154;-69
2023/05/23 00:32:41;;;;;;;8.10;5.82;;;;;;;18.47;83.02;100083.50;5113470;28;20106;-69
2023/05/23 00:35:07;;;;;;;9.35;5.72;;;;;;;18.41;83.65;100076.94;5112544;28;20012;-69
2023/05/23 00:37:33;;;;;;;7.70;5.45;;;;;;;18.39;83.71;100089.03;5112740;28;20024;-69
2023/05/23 00:39:58;;;;;;;6.70;5.47;;;;;;;18.39;83.81;100089.03;5112447;28;20031;-69
2023/05/23 00:42:24;;;;;;;6.68;5.32;;;;;;;18.35;83.85;100087.69;5112708;28;20038;-69
2023/05/23 00:44:49;;;;;;;6.40;5.43;;;;;;;18.24;84.59;100075.44;5112865;28;20024;-69
2023/05/23 00:47:15;;;;;;;7.78;5.50;;;;;;;18.22;84.82;100084.81;5112260;28;20199;-69
2023/05/23 00:49:41;;;;;;;8.27;6.25;;;;;;;18.20;85.67;100087.72;5112747;28;20368;-69
2023/05/23 00:52:06;;;;;;;10.38;6.75;;;;;;;18.13;85.86;100080.50;5112316;28;20031;-69
2023/05/23 00:54:33;;;;;;;7.10;5.93;;;;;;;18.08;86.01;100082.97;5111196;28;20122;-69
2023/05/23 00:56:59;;;;;;;9.20;5.93;;;;;;;18.02;86.62;100087.25;5112296;28;20151;-69
2023/05/23 00:59:25;;;;;;;10.60;6.55;;;;;;;17.96;86.81;100086.13;5112489;28;20052;-69
2023/05/23 01:01:53;;;;;;;8.75;6.28;;;;;;;17.84;87.48;100070.53;5112425;28;20051;-69
2023/05/23 01:04:19;;;;;;;9.55;6.25;;;;;;;17.83;88.13;100076.94;5111157;28;20062;-69
2023/05/23 01:06:45;;;;;;;13.93;6.53;;;;;;;17.65;88.48;100062.94;5112663;28;20098;-69
2023/05/23 01:09:19;;;;;;;10.27;6.88;;;;;;;17.70;88.94;100080.31;5112237;28;20023;-69
2023/05/23 01:12:11;;;;;;;10.70;6.13;;;;;;;17.68;89.00;100084.25;5112284;28;20048;-68
2023/05/23 01:15:10;;;;;;;8.68;6.40;;;;;;;17.65;88.37;100084.63;5112087;28;20031;-69
2023/05/23 01:17:40;;;;;;;10.15;6.47;;;;;;;17.60;88.63;100078.91;5112045;28;20498;-69
2023/05/23 01:20:12;;;;;;;10.52;6.40;;;;;;;17.53;88.85;100081.53;5111672;28;20712;-69
2023/05/23 01:23:13;;;;;;;9.93;7.18;;;;;;;17.50;88.98;100083.75;5111790;28;20024;-69
2023/05/23 01:25:58;;;;;;;8.07;6.97;;;;;;;17.46;89.59;100085.16;5110825;28;20486;-69
2023/05/23 01:28:29;;;;;;;10.52;7.15;;;;;;;17.43;89.97;100082.81;5108869;28;20035;-69
2023/05/23 01:30:57;;;;;;;8.50;6.65;;;;;;;17.39;90.38;100081.47;5111751;28;20118;-69
2023/05/23 01:33:24;;;;;;;9.82;6.95;;;;;;;17.27;90.68;100064.81;5107913;28;20040;-68
2023/05/23 01:35:50;;;;;;;9.70;6.25;;;;;;;17.31;90.96;100067.97;5111506;28;20057;-68
2023/05/23 01:38:16;;;;;;;10.20;7.18;;;;;;;17.29;90.83;100075.47;5111593;28;20032;-69
2023/05/23 01:40:42;;;;;;;8.55;6.50;;;;;;;17.27;91.06;100070.22;5111355;27;20055;-69
2023/05/23 01:43:07;;;;;;;9.48;7.28;;;;;;;17.22;91.02;100069.09;5110974;28;20100;-69
2023/05/23 01:45:33;;;;;;;9.50;7.07;;;;;;;17.14;91.38;100063.72;5111416;28;20066;-69
2023/05/23 01:48:01;;;;;;;9.25;7.13;;;;;;;17.12;91.82;100066.63;5111137;28;20043;-69
2023/05/23 01:50:27;;;;;;;10.40;7.28;;;;;;;17.07;92.24;100063.63;5109226;28;20039;-69
2023/05/23 01:52:53;;;;;;;7.78;6.88;;;;;;;16.99;92.76;100055.56;5110960;28;20019;-69
2023/05/23 01:55:25;;;;;;;11.93;7.75;;;;;;;16.99;93.09;100068.28;5110473;28;20363;-69
2023/05/23 01:57:53;;;;;;;7.07;6.35;;;;;;;16.97;93.19;100067.63;5110219;28;20051;-69
2023/05/23 02:00:19;;;;;;;10.00;7.28;;;;;;;16.96;92.79;100074.06;5108512;28;20027;-69
2023/05/23 02:02:45;;;;;;;9.20;7.40;;;;;;;16.90;93.47;100066.66;5109838;28;20038;-69
2023/05/23 02:05:11;;;;;;;13.13;7.60;;;;;;;16.91;93.75;100071.03;5110498;28;20032;-69
2023/05/23 02:07:36;;;;;;;8.07;7.25;;;;;;;16.85;94.16;100067.19;5110212;28;20024;-69
2023/05/23 02:10:03;;;;;;;9.98;8.02;;;;;;;16.82;93.96;100062.13;5109189;28;20019;-69
2023/05/23 02:12:28;;;;;;;8.88;7.70;;;;;;;16.80;94.40;100063.34;5109092;28;20400;-69
2023/05/23 02:14:54;;;;;;;10.07;7.15;;;;;;;16.81;94.74;100070.44;5111050;28;20047;-69
2023/05/23 02:17:23;;;;;;;11.50;7.80;;;;;;;16.77;94.89;100069.94;5110819;28;20090;-69
2023/05/23 02:19:48;;;;;;;10.65;7.05;;;;;;;16.66;94.54;100048.72;5111043;28;20091;-69
2023/05/23 02:22:14;;;;;;;13.27;7.38;;;;;;;16.77;94.26;100069.13;5110861;28;20031;-68
2023/05/23 02:24:40;;;;;;;11.75;7.35;;;;;;;16.67;94.09;100054.97;5110979;27;20019;-69
2023/05/23 02:27:05;;;;;;;11.32;7.80;;;;;;;16.74;94.10;100064.06;5110177;28;20043;-69
2023/05/23 02:29:31;;;;;;;10.95;7.68;;;;;;;16.71;94.13;100062.56;5110790;28;20035;-69
2023/05/23 02:31:56;;;;;;;12.95;8.05;;;;;;;16.72;93.83;100063.38;5108962;28;20063;-69
2023/05/23 02:34:22;;;;;;;13.15;7.72;;;;;;;16.62;93.96;100046.53;5110575;28;20485;-69
2023/05/23 02:36:47;;;;;;;15.02;8.77;;;;;;;16.68;94.49;100051.25;5110767;28;20495;-69
2023/05/23 02:39:12;;;;;;;14.80;8.38;;;;;;;16.67;95.19;100060.41;5109219;28;20110;-69
2023/05/23 02:41:41;;;;;;;15.13;8.48;;;;;;;16.67;96.06;100060.41;5109534;28;20380;-69
2023/05/23 02:44:07;;;;;;;17.48;7.85;;;;;;;16.58;96.03;100045.22;5108567;28;20534;-70
2023/05/23 02:46:32;;;;;;;10.57;8.10;;;;;;;16.61;96.18;100053.81;5110241;28;20031;-70
2023/05/23 02:48:57;;;;;;;18.17;8.93;;;;;;;16.45;96.24;100031.44;5110208;28;20491;-70
2023/05/23 02:51:23;;;;;;;15.30;8.23;;;;;;;16.51;96.62;100044.25;5110264;28;20027;-70
2023/05/23 02:53:48;;;;;;;14.70;9.18;;;;;;;16.56;96.89;100050.81;5109164;28;20023;-70
2023/05/23 02:56:15;;;;;;;10.02;7.82;;;;;;;16.54;97.01;100043.91;5110020;28;20038;-70
2023/05/23 02:58:40;;;;;;;13.90;7.63;;;;;;;16.53;97.32;100045.75;5110264;28;20118;-70
2023/05/23 03:01:07;;;;;;;10.85;7.63;;;;;;;16.52;97.29;100048.63;5109999;28;20444;-70
2023/05/23 03:03:32;;;;;;;13.40;7.53;;;;;;;16.51;97.43;100041.56;5110282;28;20051;-70
2023/05/23 03:05:58;;;;;;;11.48;7.90;;;;;;;16.49;97.38;100040.88;5110304;28;20112;-70
2023/05/23 03:08:24;;;;;;;12.85;7.57;;;;;;;16.49;97.50;100041.72;5109989;28;20024;-70
2023/05/23 03:10:50;;;;;;;8.98;7.70;;;;;;;16.48;97.58;100042.72;5109292;28;20030;-70
2023/05/23 03:13:16;;;;;;;11.13;7.40;;;;;;;16.47;97.63;100041.06;5109666;28;20124;-70
2023/05/23 03:15:41;;;;;;;10.60;7.82;;;;;;;16.49;97.79;100049.84;5110219;28;20317;-70
2023/05/23 03:18:07;;;;;;;10.70;7.82;;;;;;;16.49;98.16;100046.28;5109927;28;20031;-70
2023/05/23 03:20:32;;;;;;;17.80;7.88;;;;;;;16.47;98.12;100042.94;5109706;28;20054;-70
2023/05/23 03:22:58;;;;;;;12.00;7.60;;;;;;;16.50;98.21;100046.09;5108208;28;20088;-70
2023/05/23 03:25:23;;;;;;;14.13;7.72;;;;;;;16.47;98.66;100048.34;5109239;28;20026;-70
2023/05/23 03:27:49;;;;;;;10.18;8.15;;;;;;;16.47;98.71;100048.34;5108571;28;20023;-70
2023/05/23 03:30:14;;;;;;;13.07;8.43;;;;;;;16.47;99.08;100038.34;5109350;28;20031;-70
2023/05/23 03:32:40;;;;;;;12.52;7.70;;;;;;;16.50;99.25;100042.56;5109617;28;20024;-70
2023/05/23 03:35:06;;;;;;;12.73;8.70;;;;;;;16.52;99.46;100037.81;5108923;28;20479;-70
2023/05/23 03:37:31;;;;;;;13.27;8.57;;;;;;;16.59;100.00;100038.78;5109320;28;20031;-70
2023/05/23 03:39:57;;;;;;;13.10;7.75;;;;;;;16.63;100.00;100042.81;5107487;28;20421;-70
2023/05/23 03:42:22;;;;;;;10.65;7.25;;;;;;;16.62;99.71;100031.16;5109282;28;20092;-70
2023/05/23 03:44:48;;;;;;;15.80;8.05;;;;;;;16.69;99.36;100039.38;5109066;28;20116;-70
2023/05/23 03:47:13;;;;;;;11.25;8.50;;;;;;;16.75;99.81;100042.22;5109303;28;20057;-70
2023/05/23 03:49:38;;;;;;;12.82;7.90;;;;;;;16.85;99.91;100041.97;5109873;28;20479;-70
2023/05/23 03:52:04;;;;;;;14.52;8.52;;;;;;;16.92;99.91;100042.91;5110593;28;20060;-70
2023/05/23 03:54:29;;;;;;;14.50;8.80;;;;;;;16.96;100.00;100036.13;5113420;28;20027;-70
2023/05/23 03:56:55;;;;;;;12.25;9.10;;;;;;;17.01;100.00;100044.53;5113714;28;20117;-70
2023/05/23 03:59:21;;;;;;;9.68;8.50;;;;;;;17.14;100.00;100055.59;5113837;28;20383;-70
2023/05/23 04:01:46;;;;;;;10.05;8.05;;;;;;;17.22;100.00;100044.72;5112200;28;20114;-70
2023/05/23 04:04:12;;;;;;;10.32;8.55;;;;;;;17.26;100.00;100041.44;5114019;28;20031;-69
2023/05/23 04:06:37;;;;;;;11.38;8.25;;;;;;;17.39;100.00;100041.66;5113097;28;20035;-70
2023/05/23 04:09:04;;;;;;;11.68;8.50;;;;;;;17.53;99.87;100050.84;5113119;28;20020;-70
2023/05/23 04:11:30;;;;;;;12.38;8.15;;;;;;;17.65;99.17;100050.22;5112863;28;20761;-69
2023/05/23 04:13:56;;;;;;;14.02;8.20;;;;;;;17.78;98.06;100049.56;5113573;28;20023;-70
2023/05/23 04:16:22;;;;;;;12.90;8.10;;;;;;;17.87;98.02;100045.72;5113201;28;20031;-64
2023/05/23 04:18:48;;;;;;;10.18;8.02;;;;;;;18.01;97.27;100053.00;5112345;28;20038;-64
2023/05/23 04:21:14;;;;;;;10.30;8.10;;;;;;;18.09;96.99;100052.91;5112057;28;20038;-65
2023/05/23 04:23:40;;;;;;;12.15;8.38;;;;;;;18.17;95.77;100041.09;5112079;27;20027;-64
2023/05/23 04:26:05;;;;;;;11.90;8.48;;;;;;;18.37;94.77;100055.78;5111927;28;20168;-64
2023/05/23 04:28:31;;;;;;;11.50;8.25;;;;;;;18.51;93.61;100054.91;5111719;28;20526;-65
2023/05/23 04:30:57;;;;;;;10.75;8.75;;;;;;;18.61;92.82;100050.88;5111659;28;20023;-64
2023/05/23 04:33:23;;;;;;;14.93;8.25;;;;;;;18.71;91.98;100045.97;5111238;28;20120;-65
2023/05/23 04:35:48;;;;;;;10.27;7.82;;;;;;;18.79;90.65;100036.81;5109144;28;20589;-64
2023/05/23 04:38:14;;;;;;;12.05;7.47;;;;;;;18.96;90.75;100043.69;5111922;28;20522;-64
2023/05/23 04:40:39;;;;;;;11.18;7.47;;;;;;;19.06;89.74;100041.47;5111743;27;20380;-64
2023/05/23 04:43:05;;;;;;;10.80;7.53;;;;;;;19.16;89.00;100031.97;5111724;28;20106;-65
2023/05/23 04:45:30;;;;;;;15.25;8.25;;;;;;;19.34;87.58;100036.91;5110373;28;20024;-65
2023/05/23 04:47:56;;;;;;;13.95;7.82;;;;;;;19.48;86.69;100036.00;5111767;28;20568;-65
2023/05/23 04:50:21;;;;;;;11.32;8.07;;;;;;;19.55;85.61;100024.13;5111362;28;20487;-65
2023/05/23 04:52:47;;;;;;;13.88;7.50;;;;;;;19.69;84.85;100017.72;5109995;28;20028;-65
2023/05/23 04:55:12;;;;;;;12.60;7.78;;;;;;;19.89;84.18;100024.09;5111371;28;20355;-65
2023/05/23 04:57:38;;;;;;;11.38;8.15;;;;;;;19.90;82.97;100006.72;5110224;28;20114;-64
2023/05/23 05:00:09;;;;;;;13.02;8.23;;;;;;;20.14;82.39;100025.31;5111173;28;20628;-64
2023/05/23 05:02:37;;;;;;;14.55;7.80;;;;;;;20.14;81.75;100003.53;5109993;28;20080;-64
2023/05/23 05:05:03;;;;;;;13.07;7.93;;;;;;;20.34;81.30;100032.72;5110377;28;20046;-65
2023/05/23 05:07:29;;;;;;;10.23;7.47;;;;;;;20.44;80.64;100025.00;5109019;28;20407;-64
2023/05/23 05:09:55;;;;;;;16.40;7.38;;;;;;;20.52;80.02;100024.81;5110722;28;20031;-64
2023/05/23 05:12:20;;;;;;;18.27;7.40;;;;;;;20.62;79.35;100020.66;5109284;28;20039;-65
2023/05/23 05:14:46;;;;;;;11.15;7.50;;;;;;;20.65;79.12;100027.56;5110911;28;20024;-64
2023/05/23 05:17:11;;;;;;;11.25;7.65;;;;;;;20.70;79.21;100028.63;5110924;28;20371;-64
2023/05/23 05:19:37;;;;;;;14.32;7.40;;;;;;;20.74;79.55;100027.19;5111415;27;20028;-64
2023/05/23 05:22:03;;;;;;;9.82;7.43;;;;;;;20.76;79.87;100032.44;5110787;28;20023;-64
2023/05/23 05:24:28;;;;;;;15.30;7.80;;;;;;;20.75;79.85;100033.44;5111141;28;20034;-64
2023/05/23 05:26:54;;;;;;;13.05;7.57;;;;;;;20.77;79.95;100031.38;5111146;28;20032;-64
2023/05/23 05:29:20;;;;;;;14.25;8.07;;;;;;;20.77;79.92;100034.94;5107702;28;20026;-69
2023/05/23 05:31:46;;;;;;;19.58;8.35;;;;;;;20.71;80.23;100021.28;5109960;28;20471;-69
2023/05/23 05:34:12;;;;;;;13.20;8.43;;;;;;;20.72;80.58;100029.25;5111968;28;20055;-69
2023/05/23 05:36:44;;;;;;;13.30;8.20;;;;;;;20.76;80.36;100024.25;5111118;28;20020;-69
2023/05/23 05:39:10;;;;;;;15.23;8.75;;;;;;;20.80;81.14;100034.50;5111327;28;20024;-69
2023/05/23 05:41:35;;;;;;;23.13;9.27;;;;;;;20.88;80.09;100026.16;5112051;28;20024;-69
2023/05/23 05:44:01;;;;;;;16.67;7.43;;;;;;;20.88;81.24;100020.69;5111518;28;20661;-69
2023/05/23 05:46:26;;;;;;;13.77;7.82;;;;;;;20.99;81.75;100035.63;5111930;28;20027;-69
2023/05/23 05:48:52;;;;;;;11.98;9.23;;;;;;;21.07;81.19;100035.41;5112001;28;20039;-69
2023/05/23 05:51:17;;;;;;;17.38;8.75;;;;;;;21.16;80.29;100036.91;5111917;28;20027;-69
2023/05/23 05:53:42;;;;;;;18.83;9.50;;;;;;;21.30;79.65;100039.41;5112012;28;20035;-69
2023/05/23 05:56:08;;;;;;;19.08;10.20;;;;;;;21.39;78.34;100020.94;5111680;28;20051;-69
2023/05/23 05:58:33;;;;;;;16.90;9.20;;;;;;;21.58;77.33;100031.00;5112117;28;20035;-69
2023/05/23 06:00:59;;;;;;;15.38;9.30;;;;;;;21.77;76.89;100033.72;5111939;28;20043;-69
2023/05/23 06:03:26;;;;;;;13.07;8.75;;;;;;;21.93;75.61;100029.69;5111957;28;20019;-69
2023/05/23 06:05:51;;;;;;;13.23;8.52;;;;;;;22.11;73.15;100032.56;5111677;28;20401;-69
2023/05/23 06:08:16;;;;;;;14.82;7.90;;;;;;;22.32;72.62;100041.31;5111764;28;20072;-69
2023/05/23 06:10:42;;;;;;;17.73;8.07;;;;;;;22.50;72.35;100040.63;5111626;27;20396;-69
2023/05/23 06:13:07;;;;;;;12.60;8.60;;;;;;;22.69;70.83;100042.41;5111656;28;20083;-69
2023/05/23 06:15:33;;;;;;;12.80;7.75;;;;;;;22.92;69.08;100037.22;5111632;28;20035;-69
2023/05/23 06:17:58;;;;;;;14.30;6.90;;;;;;;23.05;68.77;100030.84;5111724;28;20115;-69
2023/05/23 06:20:24;;;;;;;12.30;7.43;;;;;;;23.30;66.64;100045.38;5111618;28;20031;-69
2023/05/23 06:22:49;;;;;;;16.23;8.05;;;;;;;23.44;64.41;100036.81;5111920;28;20019;-69
2023/05/23 06:25:15;;;;;;;20.83;7.43;;;;;;;23.54;63.78;100037.16;5111375;28;20034;-69
2023/05/23 06:27:40;;;;;;;12.43;7.72;;;;;;;23.67;63.54;100033.47;5111573;28;20064;-69
2023/05/23 06:30:06;;;;;;;15.70;7.40;;;;;;;23.72;62.84;100014.44;5111508;28;20036;-69
2023/05/23 06:32:32;;;;;;;12.82;7.22;;;;;;;23.85;62.54;100006.91;5111346;28;20364;-69
2023/05/23 06:34:57;;;;;;;11.10;6.85;;;;;;;24.19;59.87;100021.94;5111409;28;20121;-69
2023/05/23 06:37:22;;;;;;;14.60;7.88;;;;;;;24.51;57.81;100028.06;5111213;28;20029;-69
2023/05/23 06:39:48;;;;;;;10.07;5.85;;;;;;;24.60;56.77;100024.75;5111603;28;20128;-69
2023/05/23 06:42:15;;;;;;;9.57;6.30;;;;;;;24.73;56.87;100029.28;5111434;28;20176;-69
2023/05/23 06:44:40;;;;;;;10.70;6.55;;;;;;;24.85;57.53;100035.66;5111582;28;20020;-69
2023/05/23 06:47:05;;;;;;;13.95;5.75;;;;;;;24.97;57.67;100029.13;5111299;28;20031;-69
2023/05/23 06:49:31;;;;;;;7.90;5.85;;;;;;;25.10;57.59;100022.56;5111390;28;20016;-69
2023/05/23 06:51:56;;;;;;;14.35;6.32;;;;;;;25.28;55.67;100030.72;5111096;28;20019;-67
2023/05/23 06:54:22;;;;;;;13.27;6.25;;;;;;;25.28;55.44;100009.59;5110379;28;20028;-66
2023/05/23 06:56:47;;;;;;;13.68;6.10;;;;;;;25.47;54.19;100021.34;5109452;28;20020;-66
2023/05/23 06:59:12;;;;;;;13.82;5.40;;;;;;;25.64;53.63;100025.91;5110656;28;20477;-67
2023/05/23 07:01:38;;;;;;;10.00;5.22;;;;;;;25.84;53.05;100031.00;5108971;28;20023;-67
2023/05/23 07:04:03;;;;;;;11.23;5.63;;;;;;;25.97;53.30;100020.66;5110175;27;20020;-67
2023/05/23 07:06:30;;;;;;;9.85;5.80;;;;;;;26.02;52.26;100012.50;5110247;28;20047;-67
2023/05/23 07:08:55;;;;;;;7.57;4.68;;;;;;;26.23;51.62;100025.63;5110362;28;20031;-67
2023/05/23 07:11:21;;;;;;;8.40;5.35;;;;;;;26.30;51.63;100026.31;5110442;28;20035;-67
2023/05/23 07:13:46;;;;;;;11.45;5.78;;;;;;;26.39;51.15;100029.50;5110842;28;20035;-67
2023/05/23 07:16:12;;;;;;;8.63;5.10;;;;;;;26.50;50.50;100015.72;5109292;28;20042;-67
2023/05/23 07:18:37;;;;;;;8.65;5.00;;;;;;;26.58;50.79;100013.63;5110536;28;20383;-67
2023/05/23 07:21:03;;;;;;;7.10;5.22;;;;;;;26.71;50.17;100021.63;5109030;28;20046;-67
2023/05/23 07:23:33;;;;;;;10.07;5.18;;;;;;;26.75;49.93;100012.63;5110285;28;20035;-66
2023/05/23 07:25:58;;;;;;;7.22;4.78;;;;;;;26.89;49.79;100018.69;5110397;28;20023;-67
2023/05/23 07:28:24;;;;;;;9.82;5.10;;;;;;;26.91;50.17;100017.34;5104782;28;20028;-67
2023/05/23 07:30:50;;;;;;;10.10;6.05;;;;;;;27.05;49.06;100023.38;5110602;28;20030;-70
2023/05/23 07:33:15;;;;;;;7.75;5.03;;;;;;;27.10;49.09;100024.31;5111297;28;20088;-70
2023/05/23 07:35:41;;;;;;;6.80;4.82;;;;;;;27.20;48.80;100020.88;5108925;28;20031;-70
2023/05/23 07:38:06;;;;;;;9.95;5.38;;;;;;;27.21;48.20;100011.56;5111156;28;20027;-70
2023/05/23 07:40:32;;;;;;;7.95;5.28;;;;;;;27.42;47.98;100019.09;5111739;28;20030;-69
2023/05/23 07:42:58;;;;;;;8.13;5.25;;;;;;;27.54;47.86;100017.94;5111405;28;20045;-70
2023/05/23 07:45:24;;;;;;;11.70;5.75;;;;;;;27.71;45.93;100007.72;5111472;28;20037;-70
2023/05/23 07:47:50;;;;;;;9.25;5.75;;;;;;;27.54;46.63;99998.63;5109937;28;20024;-67
2023/05/23 07:50:15;;;;;;;9.30;5.43;;;;;;;27.62;47.31;100013.88;5110017;28;20391;-68
2023/05/23 07:52:41;;;;;;;9.43;5.72;;;;;;;27.70;46.57;100005.19;5110178;28;20023;-67
2023/05/23 07:55:07;;;;;;;6.38;5.00;;;;;;;27.76;46.29;100002.25;5108616;28;20031;-67
2023/05/23 07:57:32;;;;;;;9.10;5.70;;;;;;;27.84;45.15;99993.56;5109772;28;20345;-68
2023/05/23 07:59:58;;;;;;;11.05;6.07;;;;;;;27.98;45.44;100011.44;5110238;28;20065;-68
2023/05/23 08:02:23;;;;;;;10.02;5.75;;;;;;;27.90;45.84;100006.38;5109840;28;20771;-67
2023/05/23 08:04:49;;;;;;;9.48;5.45;;;;;;;27.98;45.28;100016.94;5109933;28;20444;-68
2023/05/23 08:07:15;;;;;;;7.75;4.80;;;;;;;27.92;44.54;100003.34;5109991;28;20399;-67
2023/05/23 08:09:40;;;;;;;9.60;4.55;;;;;;;27.94;43.45;100004.75;5110078;28;20024;-67
2023/05/23 08:12:08;;;;;;;7.70;5.00;;;;;;;28.02;43.93;100020.03;5109747;28;20071;-67
2023/05/23 08:14:34;;;;;;;9.82;4.50;;;;;;;28.03;43.65;100013.41;5109879;28;20463;-68
2023/05/23 08:17:00;;;;;;;7.32;4.70;;;;;;;27.97;43.99;100006.16;5109771;28;20032;-67
2023/05/23 08:19:25;;;;;;;9.57;5.22;;;;;;;27.88;44.16;100002.16;5109760;28;20038;-68
2023/05/23 08:21:52;;;;;;;7.88;5.28;;;;;;;28.03;44.09;100019.78;5109729;28;20023;-67
2023/05/23 08:24:18;;;;;;;7.93;5.57;;;;;;;28.04;43.87;100013.16;5109859;28;20054;-67
2023/05/23 08:26:43;;;;;;;9.13;4.90;;;;;;;27.99;44.77;100006.75;5109883;28;20034;-67
2023/05/23 08:29:09;;;;;;;7.22;5.45;;;;;;;28.08;45.00;100019.84;5109224;28;20019;-67
2023/05/23 08:31:34;;;;;;;9.48;6.10;;;;;;;28.16;44.53;100013.88;5109425;28;20114;-67
2023/05/23 08:34:00;;;;;;;11.65;5.68;;;;;;;28.13;44.89;100008.88;5109767;28;20023;-67
2023/05/23 08:36:26;;;;;;;6.95;5.85;;;;;;;28.18;43.69;100008.94;5109772;28;20016;-67
2023/05/23 08:38:51;;;;;;;6.85;5.07;;;;;;;28.19;43.34;100015.28;5110064;28;20043;-67
2023/05/23 08:41:23;;;;;;;11.55;5.40;;;;;;;28.32;41.69;100006.63;5113386;27;20028;-68
2023/05/23 08:43:49;;;;;;;7.93;5.30;;;;;;;28.35;41.52;100019.91;5110024;28;20110;-67
2023/05/23 08:46:15;;;;;;;7.63;5.18;;;;;;;28.27;42.18;100017.59;5112803;28;20247;-67
2023/05/23 08:48:42;;;;;;;11.07;5.78;;;;;;;28.47;42.27;100024.22;5112285;27;20106;-67
2023/05/23 08:51:13;;;;;;;7.18;4.97;;;;;;;28.31;43.17;100019.59;5111444;28;20027;-67
2023/05/23 08:53:43;;;;;;;9.10;5.53;;;;;;;28.26;43.26;100008.50;5112669;28;20512;-67
2023/05/23 08:56:10;;;;;;;8.15;5.07;;;;;;;28.21;43.55;100000.16;5111834;28;20028;-67
2023/05/23 08:58:35;;;;;;;9.63;5.85;;;;;;;28.40;42.93;100008.91;5111777;28;20098;-67
2023/05/23 09:01:01;;;;;;;9.95;5.45;;;;;;;28.40;42.75;100011.69;5111299;28;20592;-67
2023/05/23 09:03:26;;;;;;;7.53;5.13;;;;;;;28.43;43.24;100003.72;5111595;28;20422;-67
2023/05/23 09:05:56;;;;;;;6.95;4.85;;;;;;;28.54;43.37;100005.53;5115422;28;20452;-70
2023/05/23 09:08:23;;;;;;;7.82;5.15;;;;;;;28.65;43.15;100013.94;5114870;28;20080;-70
2023/05/23 09:10:49;;;;;;;9.98;5.38;;;;;;;28.62;42.56;100000.69;5114783;28;20024;-70
2023/05/23 09:13:16;;;;;;;6.10;4.63;;;;;;;28.79;41.29;100004.97;5113841;28;20043;-70
2023/05/23 09:16:01;;;;;;;5.35;4.35;;;;;;;28.87;41.25;99996.25;5116597;27;20083;-70
2023/05/23 09:18:32;;;;;;;9.35;5.20;;;;;;;28.95;41.08;99998.50;5113799;28;20084;-69
2023/05/23 09:20:57;;;;;;;7.47;5.05;;;;;;;28.94;41.57;99994.09;5114184;28;20483;-70
2023/05/23 09:23:23;;;;;;;11.00;4.68;;;;;;;28.96;41.49;99997.44;5113768;28;20039;-70
2023/05/23 09:25:48;;;;;;;7.65;4.75;;;;;;;29.00;41.23;99994.97;5113505;28;20372;-70
2023/05/23 09:28:14;;;;;;;6.53;4.82;;;;;;;28.83;41.01;99970.25;5113006;28;20118;-68
2023/05/23 09:30:40;;;;;;;7.03;4.85;;;;;;;29.06;41.31;99991.19;5111307;28;20031;-67
2023/05/23 09:33:06;;;;;;;7.20;4.40;;;;;;;29.05;40.96;99965.50;5112108;28;20027;-67
2023/05/23 09:35:31;;;;;;;8.93;4.53;;;;;;;29.19;41.11;99980.56;5112505;28;20080;-68
2023/05/23 09:38:00;;;;;;;10.52;4.70;;;;;;;29.23;40.84;99978.91;5112441;28;20058;-68
2023/05/23 09:40:33;;;;;;;5.47;4.55;;;;;;;29.28;40.79;99981.72;5111347;28;20027;-69
2023/05/23 09:43:06;;;;;;;6.45;4.55;;;;;;;29.30;40.76;99989.75;5113340;28;20059;-70
2023/05/23 09:45:33;;;;;;;6.28;4.95;;;;;;;29.29;40.70;99988.06;5113625;28;20028;-70
2023/05/23 09:47:58;;;;;;;10.80;5.55;;;;;;;29.14;40.54;99969.44;5113478;28;20438;-70
2023/05/23 09:50:32;;;;;;;7.28;4.82;;;;;;;29.11;40.47;99974.69;5112741;28;20055;-70
2023/05/23 09:52:57;;;;;;;5.10;4.32;;;;;;;29.13;40.46;99978.00;5113525;28;20023;-69
2023/05/23 09:55:23;;;;;;;10.27;4.88;;;;;;;29.01;41.01;99980.09;5112946;28;20023;-70
2023/05/23 09:57:55;;;;;;;11.52;5.30;;;;;;;28.81;41.50;99985.38;5111689;28;20027;-70
2023/05/23 10:00:22;;;;;;;7.68;5.13;;;;;;;28.74;41.81;99982.84;5113259;27;20028;-70
2023/05/23 10:03:13;;;;;;;6.80;4.60;;;;;;;28.52;42.25;99966.34;5113266;28;20039;-70
2023/05/23 10:05:48;;;;;;;8.02;5.13;;;;;;;28.45;42.24;99973.16;5110457;28;20020;-70
2023/05/23 10:08:33;;;;;;;9.43;4.88;;;;;;;28.30;41.94;99979.28;5110174;28;20652;-70
2023/05/23 10:11:13;;;;;;;;;;;;;;;28.25;40.90;99978.41;5112796;28;20463;-70
2023/05/23 10:13:48;;;;;;;11.63;4.57;;;;;;;28.24;41.72;99972.03;5112285;28;19976;-67
2023/05/23 10:16:41;;;;;;;7.57;5.22;;;;;;;28.32;41.39;99979.88;5108898;28;20035;-67
2023/05/23 10:19:33;;;;;;;6.53;4.97;;;;;;;28.36;41.71;99969.16;5107628;28;20048;-67
2023/05/23 10:22:02;;;;;;;7.28;4.75;;;;;;;28.45;41.30;99965.72;5109999;28;20057;-67
2023/05/23 10:24:28;;;;;;;5.00;4.47;;;;;;;28.42;41.34;99946.03;5111603;28;20068;-67
2023/05/23 10:26:54;;;;;;;11.27;5.13;;;;;;;28.48;40.49;99951.41;5111452;28;20027;-68
2023/05/23 10:29:24;;;;;;;7.47;4.20;;;;;;;28.47;40.27;99946.97;5111129;28;20023;-67
2023/05/23 10:31:51;;;;;;;4.95;4.40;;;;;;;28.51;40.67;99961.91;5111321;28;20098;-67
2023/05/23 10:34:37;;;;;;;7.05;4.82;;;;;;;28.49;40.48;99953.06;5111174;28;20011;-67
2023/05/23 10:37:05;;;;;;;5.65;4.43;;;;;;;28.52;40.54;99951.69;5069183;28;20043;-67
2023/05/23 10:39:45;;;;;;;7.93;4.85;;;;;;;28.51;40.26;99948.09;5111141;28;20031;-67
2023/05/23 10:42:16;;;;;;;6.32;5.15;;;;;;;28.55;40.55;99953.94;5111352;27;20042;-70
2023/05/23 10:44:41;;;;;;;8.38;4.50;;;;;;;28.57;41.36;99948.16;5112363;28;20023;-70
2023/05/23 10:47:07;;;;;;;6.47;4.63;;;;;;;28.63;41.20;99947.94;5111847;28;20038;-70
2023/05/23 10:49:46;;;;;;;6.32;5.03;;;;;;;28.76;40.99;99946.69;5112404;27;20456;-70
2023/05/23 10:52:15;;;;;;;9.45;5.03;;;;;;;28.85;40.97;99943.19;5110579;28;20031;-70
2023/05/23 10:54:45;;;;;;;10.23;5.28;;;;;;;28.94;41.09;99941.63;5112015;28;20020;-70
2023/05/23 10:57:15;;;;;;;6.22;4.80;;;;;;;29.05;41.01;99934.28;5109617;28;20038;-70
2023/05/23 10:59:41;;;;;;;5.45;4.43;;;;;;;29.15;40.79;99937.97;5111902;28;20023;-70
2023/05/23 11:02:18;;;;;;;10.18;4.78;;;;;;;29.30;40.69;99928.97;5110897;27;20490;-70
2023/05/23 11:04:44;;;;;;;8.43;4.85;;;;;;;29.40;40.65;99940.09;5112106;28;20102;-70
2023/05/23 11:07:30;;;;;;;6.65;4.97;;;;;;;29.52;39.86;99929.66;5111822;28;20029;-70
2023/05/23 11:10:12;;;;;;;5.60;4.38;;;;;;;29.60;40.28;99926.38;5110047;28;20032;-70
2023/05/23 11:12:43;;;;;;;6.03;4.63;;;;;;;29.72;39.55;99932.56;5111685;28;20039;-70
2023/05/23 11:15:17;;;;;;;6.47;4.47;;;;;;;29.74;39.99;99924.84;5110542;28;20494;-68
2023/05/23 11:17:54;;;;;;;8.50;4.78;;;;;;;29.80;40.03;99915.47;5109474;28;20023;-68
2023/05/23 11:20:25;;;;;;;4.93;4.53;;;;;;;29.88;39.77;99924.06;5108398;28;20040;-68
2023/05/23 11:23:03;;;;;;;7.93;4.97;;;;;;;29.90;39.36;99909.97;5108749;28;20023;-68